Time;durP1;ratioP1;P1;durP2;ratioP2;P2;SDS_P1;SDS_P2;PMS_P1;PMS_P2;Temp;Humidity;BMP_temperature;BMP_pressure;BME280_temperature;BME280_humidity;BME280_pressure;Samples;Min_cycle;Max_cycle;Signal;HPM_P1;HPM_P2
2021/06/11 00:00:49;;;;;;;7.13;5.03;;;;;;;;;;5092203;28;20040;-39
2021/06/11 00:03:16;;;;;;;5.40;4.75;;;;;;;;;;5087944;28;20044;-39
2021/06/11 00:05:44;;;;;;;6.05;5.30;;;;;;;;;;5090391;28;20151;-39
2021/06/11 00:08:11;;;;;;;7.10;5.25;;;;;;;;;;5094680;28;20558;-36
2021/06/11 00:10:38;;;;;;;5.43;4.93;;;;;;;;;;5093844;28;20056;-37
2021/06/11 00:13:06;;;;;;;5.43;4.90;;;;;;;;;;5092630;28;20097;-37
2021/06/11 00:15:33;;;;;;;5.47;4.80;;;;;;;;;;5091492;28;20048;-38
2021/06/11 00:18:00;;;;;;;6.95;5.53;;;;;;;;;;5085720;28;20416;-38
2021/06/11 00:20:27;;;;;;;6.65;5.30;;;;;;;;;;5093579;28;20055;-38
2021/06/11 00:22:54;;;;;;;6.45;5.38;;;;;;;;;;5094217;28;20055;-39
2021/06/11 00:25:23;;;;;;;6.00;5.40;;;;;;;;;;5088390;28;20064;-39
2021/06/11 00:27:59;;;;;;;6.20;5.60;;;;;;;;;;5056596;28;20131;-38
2021/06/11 00:30:26;;;;;;;7.13;5.80;;;;;;;;;;5088479;28;20050;-38
2021/06/11 00:32:53;;;;;;;6.88;6.18;;;;;;;;;;5071265;28;20101;-38
2021/06/11 00:35:20;;;;;;;6.35;5.75;;;;;;;;;;5085804;28;20049;-38
2021/06/11 00:37:47;;;;;;;8.90;5.57;;;;;;;;;;5082631;28;20497;-38
2021/06/11 00:40:14;;;;;;;6.60;5.38;;;;;;;;;;5092987;28;20108;-38
2021/06/11 00:42:41;;;;;;;6.60;5.40;;;;;;;;;;5081504;28;20041;-38
2021/06/11 00:45:09;;;;;;;7.55;5.40;;;;;;;;;;5081377;28;20044;-39
2021/06/11 00:47:35;;;;;;;6.22;5.60;;;;;;;;;;5069348;28;20513;-38
2021/06/11 00:50:03;;;;;;;6.38;5.78;;;;;;;;;;5091592;28;20196;-38
2021/06/11 00:52:31;;;;;;;6.57;5.78;;;;;;;;;;5094626;28;20105;-39
2021/06/11 00:54:59;;;;;;;7.60;6.38;;;;;;;;;;5074214;28;20044;-39
2021/06/11 00:57:26;;;;;;;6.57;5.88;;;;;;;;;;5088926;28;20084;-38
2021/06/11 00:59:56;;;;;;;6.00;5.40;;;;;;;;;;5090280;28;20048;-39
2021/06/11 01:02:23;;;;;;;8.55;5.65;;;;;;;;;;5092546;28;20123;-39
2021/06/11 01:04:50;;;;;;;9.77;5.97;;;;;;;;;;5093046;28;20082;-39
2021/06/11 01:07:17;;;;;;;7.22;5.45;;;;;;;;;;5074661;28;20052;-39
2021/06/11 01:09:45;;;;;;;6.47;5.80;;;;;;;;;;5086583;28;20573;-39
2021/06/11 01:12:13;;;;;;;6.63;5.90;;;;;;;;;;5089878;28;20105;-38
2021/06/11 01:14:40;;;;;;;8.57;5.80;;;;;;;;;;5076105;28;20072;-39
2021/06/11 01:17:07;;;;;;;7.22;5.78;;;;;;;;;;5089097;28;20462;-39
2021/06/11 01:19:45;;;;;;;6.05;5.45;;;;;;;;;;5063044;28;20076;-38
2021/06/11 01:22:21;;;;;;;6.53;5.82;;;;;;;;;;5094794;28;20405;-39
2021/06/11 01:24:50;;;;;;;6.78;6.00;;;;;;;;;;5094098;28;20048;-38
2021/06/11 01:27:18;;;;;;;5.97;5.38;;;;;;;;;;5088580;28;20479;-38
2021/06/11 01:29:49;;;;;;;8.25;6.00;;;;;;;;;;5090619;28;20054;-38
2021/06/11 01:32:16;;;;;;;6.63;5.93;;;;;;;;;;5092485;28;20098;-39
2021/06/11 01:34:44;;;;;;;6.57;5.60;;;;;;;;;;5090342;28;20175;-38
2021/06/11 01:37:16;;;;;;;9.05;5.78;;;;;;;;;;5090046;28;20048;-38
2021/06/11 01:39:44;;;;;;;6.18;5.05;;;;;;;;;;5092711;28;20075;-39
2021/06/11 01:42:11;;;;;;;6.45;5.65;;;;;;;;;;5091339;28;20098;-38
2021/06/11 01:44:39;;;;;;;5.70;5.10;;;;;;;;;;5078990;28;20595;-38
2021/06/11 01:47:06;;;;;;;6.10;5.03;;;;;;;;;;5090896;28;20056;-38
2021/06/11 01:49:33;;;;;;;5.80;5.20;;;;;;;;;;5091238;28;20055;-38
2021/06/11 01:52:02;;;;;;;6.40;5.05;;;;;;;;;;5089061;28;20040;-38
2021/06/11 01:54:29;;;;;;;7.35;5.68;;;;;;;;;;5091496;28;20055;-38
2021/06/11 01:56:56;;;;;;;6.25;5.63;;;;;;;;;;5076261;28;20084;-39
2021/06/11 01:59:23;;;;;;;6.15;5.35;;;;;;;;;;5090394;28;20580;-38
2021/06/11 02:01:51;;;;;;;7.07;5.50;;;;;;;;;;5090175;28;20056;-38
2021/06/11 02:04:19;;;;;;;5.90;5.30;;;;;;;;;;5087259;28;20044;-39
2021/06/11 02:06:46;;;;;;;6.78;5.50;;;;;;;;;;5068914;28;20116;-40
2021/06/11 02:09:13;;;;;;;6.88;5.55;;;;;;;;;;5061804;28;20131;-38
2021/06/11 02:11:41;;;;;;;6.82;5.97;;;;;;;;;;5084477;28;20044;-38
2021/06/11 02:14:12;;;;;;;6.40;5.80;;;;;;;;;;5089032;28;20098;-39
2021/06/11 02:16:39;;;;;;;7.55;6.32;;;;;;;;;;5091177;28;20048;-38
2021/06/11 02:19:06;;;;;;;6.53;5.85;;;;;;;;;;5075129;28;20048;-38
2021/06/11 02:21:34;;;;;;;6.45;5.75;;;;;;;;;;5090319;28;20442;-37
2021/06/11 02:24:01;;;;;;;6.35;5.43;;;;;;;;;;5093241;28;20171;-38
2021/06/11 02:26:28;;;;;;;7.13;5.82;;;;;;;;;;5082538;28;20090;-37
2021/06/11 02:28:55;;;;;;;6.82;6.13;;;;;;;;;;5092712;28;20496;-38
2021/06/11 02:31:22;;;;;;;6.55;5.70;;;;;;;;;;5089228;28;20105;-39
2021/06/11 02:33:49;;;;;;;6.63;5.93;;;;;;;;;;5089466;28;20056;-38
2021/06/11 02:36:16;;;;;;;7.95;6.28;;;;;;;;;;5091973;28;20071;-38
2021/06/11 02:38:43;;;;;;;7.65;5.70;;;;;;;;;;5079585;28;20445;-38
2021/06/11 02:41:13;;;;;;;6.90;5.90;;;;;;;;;;5085785;28;20075;-38
2021/06/11 02:43:41;;;;;;;6.07;5.47;;;;;;;;;;5092046;28;20070;-38
2021/06/11 02:46:13;;;;;;;6.00;5.40;;;;;;;;;;5064424;28;20106;-38
2021/06/11 02:48:46;;;;;;;6.53;5.93;;;;;;;;;;5067156;28;20058;-38
2021/06/11 02:51:22;;;;;;;6.75;6.05;;;;;;;;;;5065487;28;20044;-38
2021/06/11 02:53:49;;;;;;;5.93;5.32;;;;;;;;;;5090916;28;20105;-38
2021/06/11 02:56:19;;;;;;;7.57;5.97;;;;;;;;;;5077413;28;20468;-39
2021/06/11 02:59:02;;;;;;;7.15;6.45;;;;;;;;;;5072873;28;20086;-38
2021/06/11 03:01:33;;;;;;;8.07;6.20;;;;;;;;;;5089469;28;20048;-38
2021/06/11 03:04:01;;;;;;;6.93;6.18;;;;;;;;;;5072532;28;20109;-38
2021/06/11 03:06:29;;;;;;;7.97;6.93;;;;;;;;;;5088127;28;20127;-38
2021/06/11 03:08:56;;;;;;;8.07;6.47;;;;;;;;;;5091558;28;20043;-39
2021/06/11 03:11:29;;;;;;;7.28;6.57;;;;;;;;;;5084317;28;20079;-38
2021/06/11 03:13:57;;;;;;;7.28;6.18;;;;;;;;;;5073103;28;20052;-39
2021/06/11 03:16:25;;;;;;;7.55;6.40;;;;;;;;;;5090642;28;20056;-39
2021/06/11 03:18:55;;;;;;;7.45;6.55;;;;;;;;;;5082906;28;20056;-38
2021/06/11 03:21:31;;;;;;;7.78;6.82;;;;;;;;;;5088200;28;20042;-39
2021/06/11 03:24:06;;;;;;;8.15;6.40;;;;;;;;;;5092017;28;20044;-39
2021/06/11 03:26:41;;;;;;;7.55;6.75;;;;;;;;;;5079638;28;20072;-39
2021/06/11 03:29:09;;;;;;;7.88;6.60;;;;;;;;;;5083571;28;20040;-39
2021/06/11 03:31:36;;;;;;;7.40;6.63;;;;;;;;;;5087773;28;20075;-38
2021/06/11 03:34:05;;;;;;;7.03;6.18;;;;;;;;;;5082260;28;20052;-37
2021/06/11 03:36:38;;;;;;;7.22;6.53;;;;;;;;;;5071821;28;20053;-38
2021/06/11 03:39:07;;;;;;;7.28;6.57;;;;;;;;;;5090901;28;20057;-38
2021/06/11 03:41:34;;;;;;;7.47;6.70;;;;;;;;;;5088088;28;20520;-37
2021/06/11 03:44:03;;;;;;;7.63;6.72;;;;;;;;;;5080279;28;20052;-38
2021/06/11 03:46:31;;;;;;;9.20;6.40;;;;;;;;;;5086302;28;20048;-39
2021/06/11 03:48:59;;;;;;;6.90;6.20;;;;;;;;;;5084039;28;20044;-38
2021/06/11 03:51:27;;;;;;;7.00;6.30;;;;;;;;;;5084737;28;20070;-37
2021/06/11 03:53:54;;;;;;;8.82;6.45;;;;;;;;;;5073337;28;20049;-38
2021/06/11 03:56:21;;;;;;;8.40;6.43;;;;;;;;;;5087897;28;20071;-38
2021/06/11 03:58:50;;;;;;;7.65;6.85;;;;;;;;;;5088990;28;20076;-38
2021/06/11 04:01:19;;;;;;;7.20;6.20;;;;;;;;;;5088364;28;20410;-37
2021/06/11 04:03:46;;;;;;;7.90;7.10;;;;;;;;;;5083983;28;20056;-38
2021/06/11 04:06:15;;;;;;;7.85;6.97;;;;;;;;;;5092192;28;20105;-38
2021/06/11 04:08:42;;;;;;;7.88;6.45;;;;;;;;;;5095762;28;20078;-38
2021/06/11 04:11:15;;;;;;;7.90;6.95;;;;;;;;;;5089562;28;20044;-38
2021/06/11 04:13:42;;;;;;;9.35;7.57;;;;;;;;;;5088688;28;20086;-38
2021/06/11 04:16:13;;;;;;;9.88;7.15;;;;;;;;;;5091102;28;20052;-38
2021/06/11 04:18:40;;;;;;;8.07;7.10;;;;;;;;;;5087213;28;20058;-38
2021/06/11 04:21:09;;;;;;;8.45;6.85;;;;;;;;;;5066291;28;20105;-37
2021/06/11 04:23:39;;;;;;;8.88;6.90;;;;;;;;;;5091593;28;20102;-38
2021/06/11 04:26:07;;;;;;;7.93;6.50;;;;;;;;;;5088384;28;20106;-39
2021/06/11 04:28:37;;;;;;;7.03;6.20;;;;;;;;;;5071245;28;20456;-37
2021/06/11 04:31:05;;;;;;;11.77;6.45;;;;;;;;;;5083915;28;20060;-38
2021/06/11 04:33:32;;;;;;;7.57;6.88;;;;;;;;;;5090983;28;20056;-38
2021/06/11 04:35:58;;;;;;;7.57;6.32;;;;;;;;;;5086522;28;20132;-38
2021/06/11 04:38:25;;;;;;;7.07;6.35;;;;;;;;;;5082127;28;20534;-38
2021/06/11 04:40:52;;;;;;;7.10;6.40;;;;;;;;;;5092963;28;20044;-37
2021/06/11 04:43:23;;;;;;;8.25;7.35;;;;;;;;;;5094840;28;20089;-37
2021/06/11 04:45:50;;;;;;;8.15;7.15;;;;;;;;;;5088445;28;20068;-38
2021/06/11 04:48:17;;;;;;;7.57;6.88;;;;;;;;;;5074220;28;20048;-38
2021/06/11 04:50:44;;;;;;;8.63;6.80;;;;;;;;;;5089016;28;20093;-37
2021/06/11 04:53:10;;;;;;;7.25;6.28;;;;;;;;;;5092909;28;20051;-38
2021/06/11 04:55:37;;;;;;;7.53;6.32;;;;;;;;;;5089619;28;20095;-38
2021/06/11 04:58:04;;;;;;;8.25;6.68;;;;;;;;;;5075689;28;20119;-37
2021/06/11 05:00:31;;;;;;;8.50;7.30;;;;;;;;;;5092560;28;20093;-38
2021/06/11 05:02:58;;;;;;;8.25;6.55;;;;;;;;;;5090460;28;20146;-38
2021/06/11 05:05:24;;;;;;;7.05;5.85;;;;;;;;;;5086158;28;20067;-37
2021/06/11 05:07:51;;;;;;;7.07;6.38;;;;;;;;;;5092967;28;20068;-38
2021/06/11 05:10:18;;;;;;;8.60;6.78;;;;;;;;;;5091145;28;20062;-37
2021/06/11 05:12:45;;;;;;;8.32;7.00;;;;;;;;;;5093142;28;20052;-37
2021/06/11 05:15:12;;;;;;;7.53;6.32;;;;;;;;;;5075603;28;20052;-37
2021/06/11 05:17:39;;;;;;;12.68;10.45;;;;;;;;;;5078527;28;20060;-37
2021/06/11 05:20:06;;;;;;;7.95;6.90;;;;;;;;;;5090168;28;20048;-37
2021/06/11 05:22:33;;;;;;;8.85;7.07;;;;;;;;;;5091137;28;20052;-37
2021/06/11 05:25:01;;;;;;;8.70;6.97;;;;;;;;;;5091968;28;20123;-38
2021/06/11 05:27:28;;;;;;;7.80;6.68;;;;;;;;;;5086826;28;20443;-38
2021/06/11 05:29:55;;;;;;;8.07;7.13;;;;;;;;;;5090968;28;20062;-37
2021/06/11 05:32:22;;;;;;;9.38;7.63;;;;;;;;;;5092853;28;20105;-37
2021/06/11 05:34:49;;;;;;;7.90;6.70;;;;;;;;;;5081440;28;20543;-38
2021/06/11 05:37:15;;;;;;;10.40;6.45;;;;;;;;;;5073520;28;20049;-38
2021/06/11 05:39:42;;;;;;;7.60;6.80;;;;;;;;;;5090640;28;20134;-38
2021/06/11 05:42:09;;;;;;;10.98;7.25;;;;;;;;;;5092908;28;20048;-38
2021/06/11 05:44:36;;;;;;;7.75;6.95;;;;;;;;;;5091953;28;20048;-38
2021/06/11 05:47:04;;;;;;;10.20;7.60;;;;;;;;;;5089018;28;20040;-37
2021/06/11 05:49:30;;;;;;;8.07;7.03;;;;;;;;;;5075314;28;20044;-38
2021/06/11 05:51:57;;;;;;;10.13;7.60;;;;;;;;;;5090421;28;20458;-38
2021/06/11 05:54:24;;;;;;;9.82;7.03;;;;;;;;;;5088160;28;20040;-38
2021/06/11 05:56:51;;;;;;;8.68;7.57;;;;;;;;;;5087749;28;20466;-37
2021/06/11 05:59:17;;;;;;;8.70;7.05;;;;;;;;;;5092491;28;20075;-38
2021/06/11 06:01:45;;;;;;;8.48;7.10;;;;;;;;;;5090508;28;20056;-38
2021/06/11 06:04:12;;;;;;;9.90;7.07;;;;;;;;;;5086352;28;20119;-38
2021/06/11 06:06:39;;;;;;;8.50;7.13;;;;;;;;;;5089083;28;20096;-37
2021/06/11 06:09:05;;;;;;;10.25;8.55;;;;;;;;;;5087032;28;20109;-38
2021/06/11 06:11:32;;;;;;;11.10;9.90;;;;;;;;;;5084813;28;20131;-38
2021/06/11 06:13:59;;;;;;;9.57;7.55;;;;;;;;;;5086828;28;20131;-39
2021/06/11 06:16:26;;;;;;;8.95;7.03;;;;;;;;;;5091409;28;20127;-38
2021/06/11 06:18:53;;;;;;;8.30;7.15;;;;;;;;;;5083342;28;20082;-37
2021/06/11 06:21:20;;;;;;;10.55;7.85;;;;;;;;;;5073117;28;20044;-37
2021/06/11 06:23:47;;;;;;;12.18;7.35;;;;;;;;;;5073729;28;20101;-37
2021/06/11 06:26:14;;;;;;;11.05;8.02;;;;;;;;;;5086743;28;20076;-37
2021/06/11 06:28:41;;;;;;;7.40;6.20;;;;;;;;;;5086711;28;20134;-38
2021/06/11 06:31:07;;;;;;;8.48;6.78;;;;;;;;;;5087577;28;20119;-38
2021/06/11 06:33:34;;;;;;;9.27;6.63;;;;;;;;;;5073617;28;20134;-38
2021/06/11 06:36:01;;;;;;;7.78;6.60;;;;;;;;;;5084370;28;20109;-38
2021/06/11 06:38:29;;;;;;;7.00;6.10;;;;;;;;;;5090197;28;20501;-38
2021/06/11 06:41:00;;;;;;;10.77;6.65;;;;;;;;;;5090079;28;20122;-38
2021/06/11 06:43:28;;;;;;;8.27;6.22;;;;;;;;;;5088012;28;20119;-38
2021/06/11 06:45:56;;;;;;;9.95;6.57;;;;;;;;;;5081326;28;20128;-38
2021/06/11 06:48:23;;;;;;;7.65;6.80;;;;;;;;;;5078842;28;20605;-38
2021/06/11 06:50:50;;;;;;;9.15;6.47;;;;;;;;;;5093396;28;20056;-38
2021/06/11 06:53:20;;;;;;;7.82;6.03;;;;;;;;;;5098710;28;20044;-38
2021/06/11 06:55:46;;;;;;;7.30;6.20;;;;;;;;;;5097251;28;20053;-39
2021/06/11 06:58:13;;;;;;;7.43;6.45;;;;;;;;;;5094586;28;20052;-39
2021/06/11 07:00:40;;;;;;;8.05;6.57;;;;;;;;;;5088054;28;20121;-39
2021/06/11 07:03:07;;;;;;;7.15;5.80;;;;;;;;;;5090839;28;20067;-39
2021/06/11 07:05:34;;;;;;;6.72;5.60;;;;;;;;;;5089491;28;20083;-39
2021/06/11 07:08:01;;;;;;;7.40;6.47;;;;;;;;;;5091618;28;20052;-39
2021/06/11 07:10:28;;;;;;;6.55;5.82;;;;;;;;;;5090907;28;20163;-39
2021/06/11 07:12:55;;;;;;;7.03;5.25;;;;;;;;;;5090215;28;20079;-39
2021/06/11 07:15:22;;;;;;;6.97;5.63;;;;;;;;;;5079703;28;20067;-39
2021/06/11 07:17:49;;;;;;;9.85;7.90;;;;;;;;;;5082938;28;20399;-39
2021/06/11 07:20:16;;;;;;;6.63;5.88;;;;;;;;;;5087461;28;20123;-39
2021/06/11 07:22:43;;;;;;;6.40;5.72;;;;;;;;;;5087285;28;20076;-39
2021/06/11 07:25:10;;;;;;;8.10;6.07;;;;;;;;;;5085822;28;20485;-38
2021/06/11 07:27:37;;;;;;;6.95;5.05;;;;;;;;;;5088730;28;20072;-38
2021/06/11 07:30:05;;;;;;;8.07;5.75;;;;;;;;;;5086697;28;20072;-38
2021/06/11 07:32:42;;;;;;;5.90;5.25;;;;;;;;;;5086103;28;20043;-38
2021/06/11 07:35:13;;;;;;;5.90;5.10;;;;;;;;;;5065766;28;20061;-39
2021/06/11 07:37:41;;;;;;;6.13;5.18;;;;;;;;;;5090775;28;20075;-39
2021/06/11 07:40:09;;;;;;;5.82;5.18;;;;;;;;;;5090659;28;20048;-39
2021/06/11 07:42:36;;;;;;;7.32;5.20;;;;;;;;;;5075216;28;20501;-39
2021/06/11 07:45:05;;;;;;;7.15;6.05;;;;;;;;;;5089434;28;20642;-38
2021/06/11 07:47:32;;;;;;;6.35;5.22;;;;;;;;;;5086425;28;20053;-39
2021/06/11 07:49:59;;;;;;;10.00;5.68;;;;;;;;;;5078903;28;20498;-38
2021/06/11 07:52:26;;;;;;;7.45;5.43;;;;;;;;;;5092622;28;20130;-38
2021/06/11 07:54:53;;;;;;;6.97;5.35;;;;;;;;;;5085807;28;20044;-38
2021/06/11 07:57:20;;;;;;;5.90;5.25;;;;;;;;;;5087895;28;20056;-39
2021/06/11 07:59:46;;;;;;;5.38;4.47;;;;;;;;;;5089589;28;20509;-38
2021/06/11 08:02:15;;;;;;;5.30;4.72;;;;;;;;;;5091224;28;20127;-38
2021/06/11 08:04:42;;;;;;;5.97;4.75;;;;;;;;;;5068917;28;20068;-37
2021/06/11 08:07:09;;;;;;;6.50;4.95;;;;;;;;;;5085201;28;20165;-37
2021/06/11 08:09:35;;;;;;;5.80;4.85;;;;;;;;;;5092587;28;20090;-37
2021/06/11 08:12:02;;;;;;;6.03;4.32;;;;;;;;;;5093971;28;20048;-37
2021/06/11 08:14:29;;;;;;;6.38;4.80;;;;;;;;;;5093973;28;20085;-37
2021/06/11 08:16:56;;;;;;;5.63;4.50;;;;;;;;;;5091496;28;20105;-37
2021/06/11 08:19:23;;;;;;;6.20;4.30;;;;;;;;;;5083605;28;20052;-38
2021/06/11 08:21:50;;;;;;;7.05;4.00;;;;;;;;;;5079579;28;20076;-37
2021/06/11 08:24:16;;;;;;;8.88;4.70;;;;;;;;;;5074876;28;20568;-36
2021/06/11 08:26:44;;;;;;;5.38;3.95;;;;;;;;;;5089485;28;20051;-37
2021/06/11 08:29:11;;;;;;;6.97;5.20;;;;;;;;;;5095176;28;20072;-37
2021/06/11 08:31:38;;;;;;;5.13;4.63;;;;;;;;;;5095729;28;20075;-37
2021/06/11 08:34:17;;;;;;;5.53;4.45;;;;;;;;;;5092914;28;20048;-37
2021/06/11 08:36:44;;;;;;;6.40;4.90;;;;;;;;;;5066137;28;20110;-37
2021/06/11 08:39:10;;;;;;;8.45;6.30;;;;;;;;;;5101085;28;20154;-37
2021/06/11 08:41:37;;;;;;;8.18;5.72;;;;;;;;;;5086184;28;20049;-37
2021/06/11 08:44:06;;;;;;;6.50;5.43;;;;;;;;;;5082878;28;20094;-37
2021/06/11 08:46:33;;;;;;;6.35;5.38;;;;;;;;;;5080586;28;20110;-37
2021/06/11 08:49:01;;;;;;;6.45;4.88;;;;;;;;;;5079279;28;20444;-37
2021/06/11 08:51:28;;;;;;;4.65;3.90;;;;;;;;;;5082631;28;20453;-37
2021/06/11 08:53:55;;;;;;;5.85;4.45;;;;;;;;;;5095316;28;20052;-37
2021/06/11 08:56:22;;;;;;;5.15;4.03;;;;;;;;;;5077527;28;20048;-37
2021/06/11 08:58:50;;;;;;;7.82;5.30;;;;;;;;;;5062268;28;20409;-37
2021/06/11 09:01:16;;;;;;;5.55;4.97;;;;;;;;;;5095767;28;20048;-37
2021/06/11 09:03:44;;;;;;;6.07;4.97;;;;;;;;;;5096254;28;20048;-37
2021/06/11 09:06:16;;;;;;;5.32;4.60;;;;;;;;;;5088245;28;20045;-37
2021/06/11 09:08:51;;;;;;;6.20;4.60;;;;;;;;;;5084574;28;20082;-37
2021/06/11 09:11:20;;;;;;;4.80;4.13;;;;;;;;;;5077189;28;20054;-37
2021/06/11 09:13:50;;;;;;;4.40;3.92;;;;;;;;;;5073184;28;20049;-37
2021/06/11 09:16:21;;;;;;;5.93;4.40;;;;;;;;;;5086883;28;20036;-37
2021/06/11 09:18:52;;;;;;;5.70;3.78;;;;;;;;;;5090203;28;20068;-37
2021/06/11 09:21:33;;;;;;;4.80;4.15;;;;;;;;;;5067262;28;20093;-37
2021/06/11 09:24:23;;;;;;;5.20;4.32;;;;;;;;;;5073480;28;20059;-36
2021/06/11 09:26:57;;;;;;;5.97;5.32;;;;;;;;;;5090374;28;20048;-38
2021/06/11 09:29:25;;;;;;;5.78;3.72;;;;;;;;;;5087355;28;20044;-38
2021/06/11 09:31:52;;;;;;;5.32;3.95;;;;;;;;;;5078622;28;20056;-38
2021/06/11 09:34:23;;;;;;;5.65;4.00;;;;;;;;;;5089978;28;20196;-40
2021/06/11 09:37:01;;;;;;;6.28;4.20;;;;;;;;;;5085258;28;20508;-39
2021/06/11 09:39:48;;;;;;;4.75;4.25;;;;;;;;;;5091387;28;20063;-39
2021/06/11 09:42:16;;;;;;;6.85;4.40;;;;;;;;;;5085808;28;20056;-38
2021/06/11 09:44:49;;;;;;;5.30;4.43;;;;;;;;;;5071459;28;20048;-39
2021/06/11 09:47:36;;;;;;;6.35;4.43;;;;;;;;;;5089491;28;20501;-39
2021/06/11 09:50:07;;;;;;;6.18;4.10;;;;;;;;;;5070497;28;20134;-38
2021/06/11 09:52:48;;;;;;;5.00;4.47;;;;;;;;;;5087555;28;20621;-38
2021/06/11 09:55:23;;;;;;;11.70;8.87;;;;;;;;;;5086940;28;20058;-37
2021/06/11 09:58:07;;;;;;;6.15;4.15;;;;;;;;;;5072876;28;20082;-38
2021/06/11 10:00:39;;;;;;;4.85;4.35;;;;;;;;;;5082371;28;20055;-38
2021/06/11 10:03:10;;;;;;;5.63;4.38;;;;;;;;;;5084221;28;20117;-37
2021/06/11 10:05:38;;;;;;;4.55;4.13;;;;;;;;;;5084366;28;20032;-37
2021/06/11 10:08:06;;;;;;;5.88;4.15;;;;;;;;;;5092784;28;20069;-38
2021/06/11 10:10:33;;;;;;;5.90;4.63;;;;;;;;;;5093031;28;20048;-38
2021/06/11 10:13:00;;;;;;;6.82;5.07;;;;;;;;;;5088595;28;20400;-38
2021/06/11 10:15:26;;;;;;;5.13;4.53;;;;;;;;;;5092094;28;20197;-37
2021/06/11 10:17:53;;;;;;;6.05;4.50;;;;;;;;;;5100454;22;20126;-36
2021/06/11 10:20:20;;;;;;;5.63;4.20;;;;;;;;;;5088718;28;20040;-36
2021/06/11 10:22:47;;;;;;;5.95;4.38;;;;;;;;;;5089999;28;20114;-37
2021/06/11 10:25:14;;;;;;;6.57;4.40;;;;;;;;;;5091042;28;20511;-37
2021/06/11 10:27:41;;;;;;;5.70;5.10;;;;;;;;;;5098820;28;20086;-36
2021/06/11 10:30:09;;;;;;;7.55;4.70;;;;;;;;;;5093184;28;20139;-36
2021/06/11 10:32:47;;;;;;;4.90;4.25;;;;;;;;;;5094363;28;20063;-37
2021/06/11 10:35:34;;;;;;;5.72;4.93;;;;;;;;;;5106139;28;20073;-37
2021/06/11 10:38:01;;;;;;;6.00;4.35;;;;;;;;;;5106601;28;20040;-37
2021/06/11 10:40:33;;;;;;;6.20;4.30;;;;;;;;;;5111188;28;20677;-36
2021/06/11 10:43:24;;;;;;;5.60;4.18;;;;;;;;;;5110521;28;20043;-37
2021/06/11 10:45:52;;;;;;;5.55;4.22;;;;;;;;;;5110080;28;20118;-36
2021/06/11 10:48:19;;;;;;;7.13;4.70;;;;;;;;;;5106529;28;20119;-36
2021/06/11 10:50:46;;;;;;;5.00;4.10;;;;;;;;;;5098519;28;20781;-38
2021/06/11 10:53:26;;;;;;;4.55;3.97;;;;;;;;;;5112489;28;20080;-37
2021/06/11 10:56:14;;;;;;;4.50;4.05;;;;;;;;;;5108205;28;20048;-36
2021/06/11 10:58:45;;;;;;;5.00;4.38;;;;;;;;;;5116421;27;20105;-35
2021/06/11 11:01:24;;;;;;;6.28;3.90;;;;;;;;;;5111154;28;20462;-37
2021/06/11 11:03:52;;;;;;;5.75;4.57;;;;;;;;;;5107791;27;20134;-37
2021/06/11 11:06:27;;;;;;;4.70;3.70;;;;;;;;;;5107857;27;20043;-37
2021/06/11 11:08:55;;;;;;;5.25;4.30;;;;;;;;;;5109265;28;20071;-37
2021/06/11 11:11:29;;;;;;;8.90;4.28;;;;;;;;;;5111369;28;20043;-37
2021/06/11 11:13:56;;;;;;;4.72;3.92;;;;;;;;;;5109966;27;20047;-37
2021/06/11 11:16:24;;;;;;;12.10;4.72;;;;;;;;;;5107074;28;20513;-36
2021/06/11 11:18:51;;;;;;;5.53;4.30;;;;;;;;;;5106154;28;20055;-36
2021/06/11 11:21:32;;;;;;;6.13;3.70;;;;;;;;;;5111385;28;20466;-36
2021/06/11 11:23:59;;;;;;;4.72;3.83;;;;;;;;;;5110653;28;20088;-36
2021/06/11 11:26:41;;;;;;;4.35;3.80;;;;;;;;;;5098254;28;20062;-37
2021/06/11 11:29:08;;;;;;;3.80;3.40;;;;;;;;;;5109206;28;20062;-37
2021/06/11 11:31:36;;;;;;;4.68;3.65;;;;;;;;;;5111619;28;20077;-37
2021/06/11 11:34:04;;;;;;;4.20;3.63;;;;;;;;;;5110586;28;20052;-37
2021/06/11 11:36:32;;;;;;;4.63;3.35;;;;;;;;;;5094957;28;20151;-36
2021/06/11 11:39:00;;;;;;;6.47;3.63;;;;;;;;;;5108407;28;20043;-36
2021/06/11 11:41:27;;;;;;;3.72;2.90;;;;;;;;;;5110544;27;20083;-36
2021/06/11 11:43:54;;;;;;;3.72;2.90;;;;;;;;;;5100098;28;20048;-37
2021/06/11 11:46:21;;;;;;;3.95;3.30;;;;;;;;;;5096644;28;20067;-36
2021/06/11 11:48:48;;;;;;;4.78;3.78;;;;;;;;;;5107255;28;20557;-36
2021/06/11 11:51:14;;;;;;;4.43;3.08;;;;;;;;;;5109143;28;20039;-37
2021/06/11 11:53:41;;;;;;;2.83;2.47;;;;;;;;;;5109081;28;20405;-36
2021/06/11 11:56:08;;;;;;;3.97;2.92;;;;;;;;;;5105243;28;20051;-36
2021/06/11 11:58:35;;;;;;;4.65;2.90;;;;;;;;;;5107005;28;20051;-37
2021/06/11 12:01:02;;;;;;;4.03;2.97;;;;;;;;;;5109187;28;20130;-36
2021/06/11 12:03:30;;;;;;;4.65;2.80;;;;;;;;;;5103509;28;20040;-36
2021/06/11 12:05:56;;;;;;;5.13;2.95;;;;;;;;;;5102066;28;20058;-36
2021/06/11 12:08:41;;;;;;;3.80;2.70;;;;;;;;;;5104774;28;20046;-37
2021/06/11 12:11:08;;;;;;;4.00;2.97;;;;;;;;;;5108957;28;20118;-37
2021/06/11 12:13:35;;;;;;;6.07;3.60;;;;;;;;;;5111178;28;20135;-38
2021/06/11 12:16:03;;;;;;;4.78;3.17;;;;;;;;;;5105007;28;20512;-37
2021/06/11 12:18:30;;;;;;;3.63;3.22;;;;;;;;;;5108169;28;20043;-37
2021/06/11 12:20:57;;;;;;;4.82;3.70;;;;;;;;;;5105203;28;20044;-37
2021/06/11 12:23:23;;;;;;;4.53;3.45;;;;;;;;;;5111001;28;20039;-38
2021/06/11 12:25:50;;;;;;;3.83;3.17;;;;;;;;;;5100125;28;20180;-38
2021/06/11 12:28:17;;;;;;;5.03;4.53;;;;;;;;;;5100075;28;20040;-36
2021/06/11 12:30:47;;;;;;;6.22;3.10;;;;;;;;;;5110254;28;20048;-37
2021/06/11 12:33:13;;;;;;;3.17;2.85;;;;;;;;;;5112665;28;20078;-37
2021/06/11 12:35:40;;;;;;;4.78;3.47;;;;;;;;;;5092821;28;20106;-37
2021/06/11 12:38:07;;;;;;;3.47;2.72;;;;;;;;;;5090288;28;20463;-37
2021/06/11 12:40:34;;;;;;;4.20;2.70;;;;;;;;;;5090553;28;20079;-37
2021/06/11 12:43:05;;;;;;;3.22;2.83;;;;;;;;;;5090547;28;20095;-38
2021/06/11 12:45:32;;;;;;;3.65;2.65;;;;;;;;;;5090136;28;20079;-37
2021/06/11 12:48:00;;;;;;;4.95;3.20;;;;;;;;;;5090225;28;20135;-37
2021/06/11 12:50:27;;;;;;;4.45;2.97;;;;;;;;;;5089304;28;20056;-38
2021/06/11 12:52:54;;;;;;;6.20;3.38;;;;;;;;;;5090596;28;20548;-38
2021/06/11 12:55:21;;;;;;;4.88;3.38;;;;;;;;;;5090543;28;20095;-38
2021/06/11 12:57:48;;;;;;;4.18;3.40;;;;;;;;;;5089707;28;20108;-38
2021/06/11 13:00:15;;;;;;;4.97;3.10;;;;;;;;;;5093549;28;20048;-37
2021/06/11 13:02:42;;;;;;;3.90;3.17;;;;;;;;;;5094468;28;20052;-38
2021/06/11 13:05:09;;;;;;;4.00;3.60;;;;;;;;;;5094216;28;20361;-38
2021/06/11 13:07:37;;;;;;;4.63;3.88;;;;;;;;;;5093724;28;20532;-37
2021/06/11 13:10:04;;;;;;;5.25;3.83;;;;;;;;;;5094233;28;20048;-38
2021/06/11 13:12:31;;;;;;;4.90;3.47;;;;;;;;;;5094438;28;20052;-37
2021/06/11 13:14:57;;;;;;;4.90;3.60;;;;;;;;;;5093475;28;20044;-38
2021/06/11 13:17:24;;;;;;;3.78;3.38;;;;;;;;;;5092529;28;20493;-38
2021/06/11 13:19:51;;;;;;;4.63;3.72;;;;;;;;;;5093609;28;20136;-38
2021/06/11 13:22:18;;;;;;;3.78;3.38;;;;;;;;;;5093585;28;20055;-38
2021/06/11 13:24:46;;;;;;;4.15;3.40;;;;;;;;;;5093808;28;20123;-37
2021/06/11 13:27:13;;;;;;;4.82;3.17;;;;;;;;;;5092154;27;20043;-37
2021/06/11 13:29:40;;;;;;;3.85;3.25;;;;;;;;;;5093641;28;20048;-38
2021/06/11 13:32:07;;;;;;;3.67;3.20;;;;;;;;;;5093654;28;20481;-38
2021/06/11 13:34:34;;;;;;;4.05;3.42;;;;;;;;;;5093463;28;20135;-38
2021/06/11 13:37:01;;;;;;;3.45;3.15;;;;;;;;;;5092716;28;20132;-38
2021/06/11 13:39:28;;;;;;;4.70;3.92;;;;;;;;;;5092192;28;20083;-39
2021/06/11 13:41:54;;;;;;;4.53;3.80;;;;;;;;;;5092026;28;20044;-38
2021/06/11 13:44:21;;;;;;;5.00;3.53;;;;;;;;;;5092897;28;20044;-36
2021/06/11 13:46:48;;;;;;;6.38;3.85;;;;;;;;;;5092988;28;20064;-38
2021/06/11 13:49:15;;;;;;;4.25;3.67;;;;;;;;;;5093225;27;20402;-38
2021/06/11 13:51:42;;;;;;;4.20;3.40;;;;;;;;;;5093658;28;20056;-38
2021/06/11 13:54:09;;;;;;;4.75;3.63;;;;;;;;;;5093176;28;20559;-38
2021/06/11 13:56:35;;;;;;;3.33;3.03;;;;;;;;;;5092124;28;20043;-38
2021/06/11 13:59:02;;;;;;;3.83;3.17;;;;;;;;;;5092747;28;20075;-38
2021/06/11 14:01:29;;;;;;;3.63;3.00;;;;;;;;;;5093113;28;20075;-38
2021/06/11 14:03:56;;;;;;;3.92;2.67;;;;;;;;;;5092558;28;20070;-38
2021/06/11 14:06:23;;;;;;;3.85;3.03;;;;;;;;;;5092128;28;20052;-38
2021/06/11 14:08:49;;;;;;;3.80;3.22;;;;;;;;;;5092556;28;20051;-38
2021/06/11 14:11:16;;;;;;;3.30;2.78;;;;;;;;;;5092908;28;20464;-37
2021/06/11 14:13:46;;;;;;;4.53;2.90;;;;;;;;;;5107666;28;20067;-38
2021/06/11 14:16:12;;;;;;;3.33;2.80;;;;;;;;;;5091849;28;20059;-38
2021/06/11 14:18:39;;;;;;;4.13;3.17;;;;;;;;;;5092365;28;20408;-38
2021/06/11 14:21:06;;;;;;;3.65;2.92;;;;;;;;;;5092307;28;20145;-37
2021/06/11 14:23:33;;;;;;;3.55;3.03;;;;;;;;;;5090840;28;20036;-37
2021/06/11 14:26:00;;;;;;;3.10;2.80;;;;;;;;;;5090241;28;20048;-37
2021/06/11 14:28:27;;;;;;;3.67;2.90;;;;;;;;;;5092019;28;20458;-37
2021/06/11 14:30:54;;;;;;;4.80;3.22;;;;;;;;;;5092250;28;20123;-37
2021/06/11 14:33:21;;;;;;;4.03;3.28;;;;;;;;;;5091990;28;20163;-37
2021/06/11 14:35:49;;;;;;;4.30;3.47;;;;;;;;;;5091712;28;20465;-37
2021/06/11 14:38:16;;;;;;;4.43;2.92;;;;;;;;;;5092020;28;20075;-37
2021/06/11 14:40:43;;;;;;;3.50;3.17;;;;;;;;;;5092515;28;20134;-37
2021/06/11 14:43:12;;;;;;;3.00;2.65;;;;;;;;;;5090592;28;20129;-38
2021/06/11 14:45:38;;;;;;;4.32;3.20;;;;;;;;;;5092283;28;20453;-37
2021/06/11 14:48:06;;;;;;;5.78;3.30;;;;;;;;;;5096631;28;20097;-38
2021/06/11 14:50:33;;;;;;;4.18;3.10;;;;;;;;;;5092228;28;20493;-38